»·PEaware :: N204LE KSNA-KAVX

N204LE :: KSNA-KAVX

FLIGHT INFORMATION

Flight Status: Arrived
Operator: Privately registered:
United States
More flights under this callsign
Pilot: Bill F. (18685)
Aircraft: PIPER PA-44 SEMINOLE
(PA44)
More flights by this aircraft type
Origin: KSNA John Wayne-Orange Co
United States
Destination: KAVX Catalina
United States
More flights between these airports :: More routes between these airports
Route: SLI V21 SXC
File this flight plan on PilotEdge
Remarks:
Altitude:
(Current/Filed)
4,000ft
Speed:
(Current/Filed)
150kts
Departed: 12-Jan-22 08:12 PM
Arrived: 12-Jan-22 09:01 PM
Distance/Time
Traveled:
32nm/0:49
Distance/Time
To Go:
Arrived

Flight Plot

Page will automatically refresh every two minutes.


Map Options




Map Legend


Flown Route
Filed Route
Departure Airport
Arrival Airport
Navaid (VOR, NDB)
Fix

Horizontal Profiles

Position Reports

Time Latitude Longitude Heading Altitude Ground
Speed
12-Jan-22 19:45 33.675791 -117.872811 130 45ft 0kts
12-Jan-22 19:46 33.675792 -117.872811 130 45ft 0kts
12-Jan-22 19:47 33.675791 -117.872811 130 45ft 0kts
12-Jan-22 19:48 33.675791 -117.872811 130 45ft 0kts
12-Jan-22 19:49 33.675791 -117.872811 130 45ft 0kts
12-Jan-22 19:50 33.675791 -117.872811 130 45ft 0kts
12-Jan-22 19:51 33.675791 -117.872811 130 45ft 0kts
12-Jan-22 19:52 33.675791 -117.872811 130 45ft 0kts
12-Jan-22 19:53 33.675791 -117.872811 130 45ft 0kts
12-Jan-22 19:54 33.675791 -117.872811 130 45ft 0kts
12-Jan-22 19:55 33.675791 -117.872811 130 45ft 0kts
12-Jan-22 19:56 33.675791 -117.872811 130 45ft 0kts
12-Jan-22 19:57 33.674827 -117.871082 75 46ft 10kts
12-Jan-22 19:58 33.676527 -117.869343 208 47ft 0kts
12-Jan-22 19:59 33.676527 -117.869343 208 47ft 0kts
12-Jan-22 20:00 33.676527 -117.869343 208 47ft 0kts
12-Jan-22 20:01 33.676527 -117.869343 208 47ft 0kts
12-Jan-22 20:02 33.676527 -117.869343 208 47ft 0kts
12-Jan-22 20:03 33.676527 -117.869343 208 47ft 0kts
12-Jan-22 20:04 33.676503 -117.869359 215 47ft 0kts
12-Jan-22 20:05 33.676486 -117.869375 225 47ft 0kts
12-Jan-22 20:06 33.676486 -117.869375 225 47ft 0kts
12-Jan-22 20:07 33.677474 -117.869209 28 45ft 14kts
12-Jan-22 20:08 33.681239 -117.866606 95 44ft 1kts
12-Jan-22 20:09 33.681215 -117.866467 106 44ft 0kts
12-Jan-22 20:10 33.680982 -117.865937 120 44ft 12kts
12-Jan-22 20:11 33.665916 -117.875261 207 490ft 100kts
12-Jan-22 20:12 33.644417 -117.897702 224 1743ft 103kts
12-Jan-22 20:13 33.621151 -117.927634 227 2231ft 133kts
12-Jan-22 20:14 33.600799 -117.955487 230 3564ft 98kts
12-Jan-22 20:15 33.581906 -117.988456 235 3907ft 127kts
12-Jan-22 20:16 33.554666 -118.020414 219 4027ft 146kts
12-Jan-22 20:17 33.524909 -118.051285 219 4034ft 150kts
12-Jan-22 20:18 33.493550 -118.084177 220 4033ft 150kts
12-Jan-22 20:19 33.462184 -118.117287 220 4032ft 150kts
12-Jan-22 20:20 33.432547 -118.148881 220 4033ft 150kts
12-Jan-22 20:21 33.401599 -118.182147 220 4034ft 150kts
12-Jan-22 20:22 33.370538 -118.215862 220 3989ft 151kts
12-Jan-22 20:23 33.352610 -118.257382 291 3972ft 149kts
12-Jan-22 20:24 33.365025 -118.305523 281 3977ft 152kts
12-Jan-22 20:25 33.370130 -118.356064 271 3978ft 153kts
12-Jan-22 20:26 33.372198 -118.406714 284 3959ft 153kts
12-Jan-22 20:27 33.409806 -118.415695 2 3971ft 150kts
12-Jan-22 20:28 33.451354 -118.412950 8 3962ft 149kts
12-Jan-22 20:29 33.488563 -118.407228 9 3782ft 127kts
12-Jan-22 20:30 33.519949 -118.416092 321 3533ft 128kts
12-Jan-22 20:31 33.533801 -118.409120 133 3257ft 121kts
12-Jan-22 20:32 33.504930 -118.398634 187 3262ft 117kts
12-Jan-22 20:33 33.473685 -118.405687 189 2878ft 110kts
12-Jan-22 20:34 33.443987 -118.411683 188 2255ft 105kts
12-Jan-22 20:35 33.417188 -118.407939 150 2111ft 103kts
12-Jan-22 20:36 33.398048 -118.428092 226 2084ft 97kts
12-Jan-22 20:37 33.372585 -118.429591 206 3178ft 115kts
12-Jan-22 20:38 33.350168 -118.455553 294 3733ft 144kts
12-Jan-22 20:39 33.369973 -118.430416 69 3561ft 138kts
12-Jan-22 20:40 33.400572 -118.420944 322 3859ft 137kts
12-Jan-22 20:41 33.401981 -118.463801 228 3577ft 143kts
12-Jan-22 20:42 33.370038 -118.489579 207 3548ft 137kts
12-Jan-22 20:43 33.335836 -118.501073 150 3559ft 131kts
12-Jan-22 20:44 33.329787 -118.463703 57 3620ft 130kts
12-Jan-22 20:45 33.356921 -118.432441 40 3451ft 133kts
12-Jan-22 20:46 33.390842 -118.424212 321 3408ft 138kts
12-Jan-22 20:47 33.390822 -118.465389 233 3462ft 135kts
12-Jan-22 20:48 33.359231 -118.488552 205 3532ft 132kts
12-Jan-22 20:49 33.330289 -118.479270 102 3536ft 129kts
12-Jan-22 20:50 33.344718 -118.441324 40 3466ft 135kts
12-Jan-22 20:51 33.376018 -118.418614 20 3591ft 133kts
12-Jan-22 20:52 33.414335 -118.416137 1 3441ft 140kts
12-Jan-22 20:53 33.452882 -118.413254 8 3352ft 138kts
12-Jan-22 20:54 33.489778 -118.417656 320 3092ft 144kts
12-Jan-22 20:55 33.523215 -118.435404 37 2725ft 140kts
12-Jan-22 20:56 33.509289 -118.407443 185 2396ft 136kts
12-Jan-22 20:57 33.472739 -118.413875 185 2425ft 136kts
12-Jan-22 20:58 33.438957 -118.417297 180 2127ft 106kts
12-Jan-22 20:59 33.412197 -118.407434 179 1837ft 89kts
12-Jan-22 21:00 33.402397 -118.419502 62 1601ft 8kts
12-Jan-22 21:01 33.403768 -118.417062 80 1594ft 13kts
12-Jan-22 21:02 33.403375 -118.415544 10 1592ft 1kts
12-Jan-22 21:03 33.403232 -118.415505 334 1592ft 0kts
12-Jan-22 21:04 33.403232 -118.415505 334 1592ft 0kts
12-Jan-22 21:05 33.403232 -118.415505 334 1592ft 0kts

Navigation Log

Ident Type
Flight plan parsing failed, navigation log unavailable